Pantelleria, Italia

12:22 AM CEST del 30 Marzo 2015 (GMT +0200)
Kelibia | | Change Station
CLOSE
Current Station
Aeroporto
Location: Kelibia,
Altitudine: 98 ft
Stazioni meteo nelle vicinanze

Alt. 98 ft 36.85 °N, 11.08 °E | Updated 22 minutes ago

Clear
Sereno
59 °F
Sembra 59 °F
N
12
Vento Variabile Vento da Nord
Gusts 28 mph

Oggi
Massima -- | Minima -- °F
--% Possibilità di precip.
Ieri
Massima -- | Minima -- °F
Precip. -- in
7:01 AM 7:32 PM
Gobba a ponente, 74% visible
Pressione 30.06 in
Visibilità -9999.0 miglia
Nuvole
Punto di rugiada 54 °F
Umidità 82%
Piovosità 0.00 in
Spessore del manto nevoso Non disponibile.
Raggi UV Non disponibile.
Polline Non disponibile.
Qualità dell'aria Non disponibile.
Flu Activity Non disponibile.
METAR DTTL 292200Z AUTO 01010G24KT NCD 15/12 Q1018

More Conditions Fewer Conditions

Pressione 30.06 in
Visibilità -9999.0 miglia
Nuvole
Punto di rugiada 54 °F
Umidità 82%
Piovosità 0.00 in
Spessore del manto nevoso Non disponibile.
Raggi UV Non disponibile.
Polline Non disponibile.
Qualità dell'aria Non disponibile.
Flu Activity Non disponibile.
METAR DTTL 292200Z AUTO 01010G24KT NCD 15/12 Q1018

More Conditions Fewer Conditions

10-Day Weather Forecast

Almanac

Astronomia

Mar. 30, 2015 Alba Tramonto
Ora attuale
Crepuscolo civile
Crepuscolo nautico
Crepuscolo astronomico
Luna
Estensione della luce visibile
Lunghezza del giorno
Tomorrow will be .
, % of the Moon is Illuminated

Gli estremi di oggi

Massime Regione Minime Regione

Community

WunderPhotos

Upload Photos

1,809,372 foto caricate!

WunderBlogs® & News

Nearby

Qualità dell'aria

  Qualità dell'aria Indice AQ Inquinante
Not available.

Profondità neve

Stazione Profondità Altitudine

Attività sismica

Città  Distanza Mag. Data & Ora
Minimo Magnitudo Mostrato è 2.5.

Temperature delle acque costiere

Località Temperatura

Stations

Stazioni meteo nelle vicinanze

Ubicazione della stazione Temp. Raffreddamento del vento Punto di rugiada Umidità Vento Precip. Alt. Aggiornato Tipo